KRBL/RBL METAR and TAF weather

Enter ICAO airport designator
Station Type Date Time Source
KRBL METAR 2021/09/16 09:54 UTC NOAA

KRBL 160954Z AUTO 00000KT 10SM CLR 19/10 A2981 RMK AO2 SLP089 T01890100


Station Type Date Time Source
KRBL Decoded METAR 2021/09/16 09:54 UTC NOAA

RED BLUFF MUNICIPAL AIRPORT, CA, United States (KRBL) 40-09N 122-15W 104M
Sep 16, 2021 - 05:54 AM EDT / 2021.09.16 0954 UTC
Wind: Calm:0
Visibility: 10 mile(s):0
Sky conditions: clear
Temperature: 66.0 F (18.9 C)
Dew Point: 50.0 F (10.0 C)
Relative Humidity: 56%
Pressure (altimeter): 29.81 in. Hg (1009 hPa)
ob: KRBL 160954Z AUTO 00000KT 10SM CLR 19/10 A2981 RMK AO2 SLP089 T01890100
cycle: 10

Station Type Date Time Source
KRBL TAF 2021/09/16 06:27 UTC NOAA

TAF KRBL 160524Z 1606/1706 VRB04KT P6SM SKC
FM162200 16009KT P6SM SKC
FM170500 VRB04KT P6SM SKC

Example: see airport list